sensor_id;sensor_type;location;lat;lon;timestamp;temperature;humidity
18932;DHT22;9598;50.954;3.112;2023-02-01T00:03:37;8.30;99.90
18932;DHT22;9598;50.954;3.112;2023-02-01T00:08:39;8.30;99.90
18932;DHT22;9598;50.954;3.112;2023-02-01T00:13:43;8.20;99.90
18932;DHT22;9598;50.954;3.112;2023-02-01T00:18:47;8.20;99.90
18932;DHT22;9598;50.954;3.112;2023-02-01T00:23:49;8.20;99.90
18932;DHT22;9598;50.954;3.112;2023-02-01T00:28:53;8.20;99.90
18932;DHT22;9598;50.954;3.112;2023-02-01T00:33:55;8.10;99.90
18932;DHT22;9598;50.954;3.112;2023-02-01T00:38:57;8.00;99.90
18932;DHT22;9598;50.954;3.112;2023-02-01T00:44:01;8.00;99.90
18932;DHT22;9598;50.954;3.112;2023-02-01T00:49:04;7.90;99.90
18932;DHT22;9598;50.954;3.112;2023-02-01T00:54:08;7.90;99.90
18932;DHT22;9598;50.954;3.112;2023-02-01T00:59:12;7.80;99.90
18932;DHT22;9598;50.954;3.112;2023-02-01T01:09:49;7.70;99.90
18932;DHT22;9598;50.954;3.112;2023-02-01T01:14:53;7.70;99.90
18932;DHT22;9598;50.954;3.112;2023-02-01T01:19:55;7.70;99.90
18932;DHT22;9598;50.954;3.112;2023-02-01T01:24:57;7.70;99.90
18932;DHT22;9598;50.954;3.112;2023-02-01T01:30:00;7.60;99.90
18932;DHT22;9598;50.954;3.112;2023-02-01T01:35:03;7.60;99.90
18932;DHT22;9598;50.954;3.112;2023-02-01T01:40:06;7.60;99.90
18932;DHT22;9598;50.954;3.112;2023-02-01T01:45:21;7.50;99.90
18932;DHT22;9598;50.954;3.112;2023-02-01T01:50:27;7.50;99.90
18932;DHT22;9598;50.954;3.112;2023-02-01T01:55:32;7.50;99.90
18932;DHT22;9598;50.954;3.112;2023-02-01T02:00:38;7.50;99.90
18932;DHT22;9598;50.954;3.112;2023-02-01T02:05:41;7.40;99.90
18932;DHT22;9598;50.954;3.112;2023-02-01T02:10:43;7.40;99.90
18932;DHT22;9598;50.954;3.112;2023-02-01T02:21:48;7.40;99.90
18932;DHT22;9598;50.954;3.112;2023-02-01T02:27:02;7.40;99.90
18932;DHT22;9598;50.954;3.112;2023-02-01T02:32:38;7.30;99.90
18932;DHT22;9598;50.954;3.112;2023-02-01T02:37:53;7.30;99.90
18932;DHT22;9598;50.954;3.112;2023-02-01T02:43:03;7.30;99.90
18932;DHT22;9598;50.954;3.112;2023-02-01T02:48:27;7.20;99.90
18932;DHT22;9598;50.954;3.112;2023-02-01T02:53:35;7.20;99.90
18932;DHT22;9598;50.954;3.112;2023-02-01T02:58:57;7.20;99.90
18932;DHT22;9598;50.954;3.112;2023-02-01T03:09:44;7.10;99.90
18932;DHT22;9598;50.954;3.112;2023-02-01T03:15:00;7.00;99.90
18932;DHT22;9598;50.954;3.112;2023-02-01T03:20:06;7.00;99.90
18932;DHT22;9598;50.954;3.112;2023-02-01T03:25:15;7.00;99.90
18932;DHT22;9598;50.954;3.112;2023-02-01T03:30:21;7.00;99.90
18932;DHT22;9598;50.954;3.112;2023-02-01T03:35:29;7.00;99.90
18932;DHT22;9598;50.954;3.112;2023-02-01T03:40:35;6.90;99.90
18932;DHT22;9598;50.954;3.112;2023-02-01T03:45:40;6.90;99.90
18932;DHT22;9598;50.954;3.112;2023-02-01T03:50:46;6.90;99.90
18932;DHT22;9598;50.954;3.112;2023-02-01T03:55:52;6.90;99.90
18932;DHT22;9598;50.954;3.112;2023-02-01T04:00:57;6.80;99.90
18932;DHT22;9598;50.954;3.112;2023-02-01T04:06:02;6.90;99.90
18932;DHT22;9598;50.954;3.112;2023-02-01T04:11:06;6.80;99.90
18932;DHT22;9598;50.954;3.112;2023-02-01T04:16:08;6.80;99.90
18932;DHT22;9598;50.954;3.112;2023-02-01T04:21:11;6.80;99.90
18932;DHT22;9598;50.954;3.112;2023-02-01T04:26:14;6.70;99.90
18932;DHT22;9598;50.954;3.112;2023-02-01T04:31:17;6.70;99.90
18932;DHT22;9598;50.954;3.112;2023-02-01T04:36:25;6.70;99.90
18932;DHT22;9598;50.954;3.112;2023-02-01T04:41:29;6.70;99.90
18932;DHT22;9598;50.954;3.112;2023-02-01T04:46:31;6.70;99.90
18932;DHT22;9598;50.954;3.112;2023-02-01T04:51:33;6.70;99.90
18932;DHT22;9598;50.954;3.112;2023-02-01T04:56:37;6.70;99.90
18932;DHT22;9598;50.954;3.112;2023-02-01T05:01:40;6.80;99.90
18932;DHT22;9598;50.954;3.112;2023-02-01T05:06:42;6.70;99.90
18932;DHT22;9598;50.954;3.112;2023-02-01T05:11:45;6.70;99.90
18932;DHT22;9598;50.954;3.112;2023-02-01T05:17:05;6.70;99.90
18932;DHT22;9598;50.954;3.112;2023-02-01T05:22:07;6.60;99.90
18932;DHT22;9598;50.954;3.112;2023-02-01T05:27:10;6.60;99.90
18932;DHT22;9598;50.954;3.112;2023-02-01T05:32:13;6.60;99.90
18932;DHT22;9598;50.954;3.112;2023-02-01T05:37:15;6.60;99.90
18932;DHT22;9598;50.954;3.112;2023-02-01T05:42:19;6.60;99.90
18932;DHT22;9598;50.954;3.112;2023-02-01T05:47:21;6.50;99.90
18932;DHT22;9598;50.954;3.112;2023-02-01T05:52:23;6.50;99.90
18932;DHT22;9598;50.954;3.112;2023-02-01T05:57:27;6.50;99.90
18932;DHT22;9598;50.954;3.112;2023-02-01T06:02:29;6.50;99.90
18932;DHT22;9598;50.954;3.112;2023-02-01T06:07:31;6.50;99.90
18932;DHT22;9598;50.954;3.112;2023-02-01T06:12:35;6.40;99.90
18932;DHT22;9598;50.954;3.112;2023-02-01T06:17:37;6.40;99.90
18932;DHT22;9598;50.954;3.112;2023-02-01T06:22:41;6.40;99.90
18932;DHT22;9598;50.954;3.112;2023-02-01T06:27:45;6.40;99.90
18932;DHT22;9598;50.954;3.112;2023-02-01T06:32:50;6.40;99.90
18932;DHT22;9598;50.954;3.112;2023-02-01T06:37:54;6.40;99.90
18932;DHT22;9598;50.954;3.112;2023-02-01T06:43:00;6.30;99.90
18932;DHT22;9598;50.954;3.112;2023-02-01T06:48:02;6.30;99.90
18932;DHT22;9598;50.954;3.112;2023-02-01T06:53:04;6.30;99.90
18932;DHT22;9598;50.954;3.112;2023-02-01T06:58:08;6.30;99.90
18932;DHT22;9598;50.954;3.112;2023-02-01T07:03:10;6.30;99.90
18932;DHT22;9598;50.954;3.112;2023-02-01T07:08:12;6.30;99.90
18932;DHT22;9598;50.954;3.112;2023-02-01T07:13:16;6.30;99.90
18932;DHT22;9598;50.954;3.112;2023-02-01T07:18:18;6.30;99.90
18932;DHT22;9598;50.954;3.112;2023-02-01T07:23:20;6.30;99.90
18932;DHT22;9598;50.954;3.112;2023-02-01T07:28:24;6.30;99.90
18932;DHT22;9598;50.954;3.112;2023-02-01T07:33:26;6.40;99.90
18932;DHT22;9598;50.954;3.112;2023-02-01T07:38:29;6.50;99.90
18932;DHT22;9598;50.954;3.112;2023-02-01T07:43:32;6.50;99.90
18932;DHT22;9598;50.954;3.112;2023-02-01T07:48:34;6.50;99.90
18932;DHT22;9598;50.954;3.112;2023-02-01T07:53:37;6.60;99.90
18932;DHT22;9598;50.954;3.112;2023-02-01T07:58:41;6.60;99.90
18932;DHT22;9598;50.954;3.112;2023-02-01T08:03:44;6.70;99.90
18932;DHT22;9598;50.954;3.112;2023-02-01T08:08:46;6.70;99.90
18932;DHT22;9598;50.954;3.112;2023-02-01T08:13:50;6.80;99.90
18932;DHT22;9598;50.954;3.112;2023-02-01T08:18:53;6.90;99.90
18932;DHT22;9598;50.954;3.112;2023-02-01T08:23:55;7.00;99.90
18932;DHT22;9598;50.954;3.112;2023-02-01T08:29:01;7.00;99.90
18932;DHT22;9598;50.954;3.112;2023-02-01T08:34:03;7.10;99.90
18932;DHT22;9598;50.954;3.112;2023-02-01T08:39:06;7.10;99.90
18932;DHT22;9598;50.954;3.112;2023-02-01T08:44:11;7.20;99.90
18932;DHT22;9598;50.954;3.112;2023-02-01T08:49:13;7.20;99.90
18932;DHT22;9598;50.954;3.112;2023-02-01T08:54:15;7.30;99.90
18932;DHT22;9598;50.954;3.112;2023-02-01T08:59:18;7.30;99.90
18932;DHT22;9598;50.954;3.112;2023-02-01T09:04:20;7.40;99.90
18932;DHT22;9598;50.954;3.112;2023-02-01T09:09:23;7.40;99.90
18932;DHT22;9598;50.954;3.112;2023-02-01T09:14:26;7.50;99.90
18932;DHT22;9598;50.954;3.112;2023-02-01T09:19:28;7.50;99.90
18932;DHT22;9598;50.954;3.112;2023-02-01T09:24:31;7.60;99.90
18932;DHT22;9598;50.954;3.112;2023-02-01T09:29:34;7.60;99.90
18932;DHT22;9598;50.954;3.112;2023-02-01T09:34:36;7.60;99.90
18932;DHT22;9598;50.954;3.112;2023-02-01T09:39:38;7.70;99.90
18932;DHT22;9598;50.954;3.112;2023-02-01T09:45:01;7.80;99.90
18932;DHT22;9598;50.954;3.112;2023-02-01T09:50:10;8.00;99.90
18932;DHT22;9598;50.954;3.112;2023-02-01T09:55:18;8.10;99.90
18932;DHT22;9598;50.954;3.112;2023-02-01T10:00:27;8.30;99.90
18932;DHT22;9598;50.954;3.112;2023-02-01T10:05:54;8.40;99.90
18932;DHT22;9598;50.954;3.112;2023-02-01T10:11:04;8.50;99.90
18932;DHT22;9598;50.954;3.112;2023-02-01T10:16:22;8.60;99.90
18932;DHT22;9598;50.954;3.112;2023-02-01T10:21:36;8.60;99.90
18932;DHT22;9598;50.954;3.112;2023-02-01T10:26:45;8.70;99.90
18932;DHT22;9598;50.954;3.112;2023-02-01T10:31:48;8.80;99.90
18932;DHT22;9598;50.954;3.112;2023-02-01T10:36:54;8.80;99.90
18932;DHT22;9598;50.954;3.112;2023-02-01T10:41:57;8.80;99.90
18932;DHT22;9598;50.954;3.112;2023-02-01T10:47:00;8.90;99.90
18932;DHT22;9598;50.954;3.112;2023-02-01T10:52:07;9.00;99.90
18932;DHT22;9598;50.954;3.112;2023-02-01T10:57:21;9.00;99.90
18932;DHT22;9598;50.954;3.112;2023-02-01T11:02:29;9.10;99.90
18932;DHT22;9598;50.954;3.112;2023-02-01T11:07:32;9.10;99.90
18932;DHT22;9598;50.954;3.112;2023-02-01T11:12:36;9.20;99.90
18932;DHT22;9598;50.954;3.112;2023-02-01T11:17:43;9.30;99.90
18932;DHT22;9598;50.954;3.112;2023-02-01T11:22:47;9.40;99.90
18932;DHT22;9598;50.954;3.112;2023-02-01T11:27:50;9.40;99.90
18932;DHT22;9598;50.954;3.112;2023-02-01T11:32:54;9.50;99.90
18932;DHT22;9598;50.954;3.112;2023-02-01T11:37:58;9.60;99.90
18932;DHT22;9598;50.954;3.112;2023-02-01T11:43:12;9.60;99.90
18932;DHT22;9598;50.954;3.112;2023-02-01T11:48:16;9.70;99.90
18932;DHT22;9598;50.954;3.112;2023-02-01T11:53:25;9.80;99.90
18932;DHT22;9598;50.954;3.112;2023-02-01T11:59:01;9.90;99.90
18932;DHT22;9598;50.954;3.112;2023-02-01T12:04:39;10.00;99.90
18932;DHT22;9598;50.954;3.112;2023-02-01T12:09:55;9.90;99.90
18932;DHT22;9598;50.954;3.112;2023-02-01T12:15:13;9.90;99.90
18932;DHT22;9598;50.954;3.112;2023-02-01T12:20:30;10.00;99.90
18932;DHT22;9598;50.954;3.112;2023-02-01T12:25:51;10.00;99.90
18932;DHT22;9598;50.954;3.112;2023-02-01T12:31:20;10.00;99.90
18932;DHT22;9598;50.954;3.112;2023-02-01T12:36:35;10.20;99.90
18932;DHT22;9598;50.954;3.112;2023-02-01T12:41:47;10.20;99.90
18932;DHT22;9598;50.954;3.112;2023-02-01T12:46:54;10.30;99.90
18932;DHT22;9598;50.954;3.112;2023-02-01T12:52:02;10.30;99.90
18932;DHT22;9598;50.954;3.112;2023-02-01T12:57:10;10.20;99.90
18932;DHT22;9598;50.954;3.112;2023-02-01T13:02:19;10.20;99.90
18932;DHT22;9598;50.954;3.112;2023-02-01T13:07:30;10.30;99.90
18932;DHT22;9598;50.954;3.112;2023-02-01T13:12:38;10.30;99.90
18932;DHT22;9598;50.954;3.112;2023-02-01T13:17:42;10.40;99.90
18932;DHT22;9598;50.954;3.112;2023-02-01T13:22:50;10.50;99.90
18932;DHT22;9598;50.954;3.112;2023-02-01T13:27:54;10.50;99.90
18932;DHT22;9598;50.954;3.112;2023-02-01T13:33:18;10.50;99.90
18932;DHT22;9598;50.954;3.112;2023-02-01T13:38:47;10.50;99.90
18932;DHT22;9598;50.954;3.112;2023-02-01T13:43:59;10.50;99.90
18932;DHT22;9598;50.954;3.112;2023-02-01T13:49:03;10.50;99.90
18932;DHT22;9598;50.954;3.112;2023-02-01T13:54:23;10.40;99.90
18932;DHT22;9598;50.954;3.112;2023-02-01T14:04:55;10.60;99.90
18932;DHT22;9598;50.954;3.112;2023-02-01T14:15:39;10.70;99.90
18932;DHT22;9598;50.954;3.112;2023-02-01T14:20:42;10.60;99.90
18932;DHT22;9598;50.954;3.112;2023-02-01T14:26:15;10.50;99.90
18932;DHT22;9598;50.954;3.112;2023-02-01T14:31:31;10.50;99.90
18932;DHT22;9598;50.954;3.112;2023-02-01T14:36:43;10.40;99.90
18932;DHT22;9598;50.954;3.112;2023-02-01T14:41:47;10.40;99.90
18932;DHT22;9598;50.954;3.112;2023-02-01T14:52:35;10.20;99.90
18932;DHT22;9598;50.954;3.112;2023-02-01T14:57:42;10.30;99.90
18932;DHT22;9598;50.954;3.112;2023-02-01T15:02:46;10.20;99.90
18932;DHT22;9598;50.954;3.112;2023-02-01T15:07:50;10.20;99.90
18932;DHT22;9598;50.954;3.112;2023-02-01T15:12:54;10.20;99.90
18932;DHT22;9598;50.954;3.112;2023-02-01T15:17:57;10.20;99.90
18932;DHT22;9598;50.954;3.112;2023-02-01T15:23:02;10.10;99.90
18932;DHT22;9598;50.954;3.112;2023-02-01T15:28:10;10.00;99.90
18932;DHT22;9598;50.954;3.112;2023-02-01T15:33:16;10.00;99.90
18932;DHT22;9598;50.954;3.112;2023-02-01T15:43:40;9.90;99.90
18932;DHT22;9598;50.954;3.112;2023-02-01T15:48:45;9.90;99.90
18932;DHT22;9598;50.954;3.112;2023-02-01T15:53:51;9.80;99.90
18932;DHT22;9598;50.954;3.112;2023-02-01T15:59:00;9.80;99.90
18932;DHT22;9598;50.954;3.112;2023-02-01T16:04:13;9.80;99.90
18932;DHT22;9598;50.954;3.112;2023-02-01T16:09:18;9.80;99.90
18932;DHT22;9598;50.954;3.112;2023-02-01T16:14:23;9.70;99.90
18932;DHT22;9598;50.954;3.112;2023-02-01T16:19:25;9.70;99.90
18932;DHT22;9598;50.954;3.112;2023-02-01T16:24:28;9.70;99.90
18932;DHT22;9598;50.954;3.112;2023-02-01T16:29:33;9.70;99.90
18932;DHT22;9598;50.954;3.112;2023-02-01T16:34:35;9.70;99.90
18932;DHT22;9598;50.954;3.112;2023-02-01T16:39:37;9.70;99.90
18932;DHT22;9598;50.954;3.112;2023-02-01T16:44:41;9.70;99.90
18932;DHT22;9598;50.954;3.112;2023-02-01T16:49:44;9.70;99.90
18932;DHT22;9598;50.954;3.112;2023-02-01T16:54:47;9.60;99.90
18932;DHT22;9598;50.954;3.112;2023-02-01T16:59:51;9.60;99.90
18932;DHT22;9598;50.954;3.112;2023-02-01T17:04:53;9.60;99.90
18932;DHT22;9598;50.954;3.112;2023-02-01T17:09:55;9.60;99.90
18932;DHT22;9598;50.954;3.112;2023-02-01T17:14:59;9.60;99.90
18932;DHT22;9598;50.954;3.112;2023-02-01T17:20:03;9.60;99.90
18932;DHT22;9598;50.954;3.112;2023-02-01T17:25:13;9.60;99.90
18932;DHT22;9598;50.954;3.112;2023-02-01T17:30:17;9.50;99.90
18932;DHT22;9598;50.954;3.112;2023-02-01T17:35:22;9.60;99.90
18932;DHT22;9598;50.954;3.112;2023-02-01T17:40:24;9.50;99.90
18932;DHT22;9598;50.954;3.112;2023-02-01T17:45:35;9.50;99.90
18932;DHT22;9598;50.954;3.112;2023-02-01T17:50:38;9.50;99.90
18932;DHT22;9598;50.954;3.112;2023-02-01T17:55:42;9.50;99.90
18932;DHT22;9598;50.954;3.112;2023-02-01T18:00:47;9.50;99.90
18932;DHT22;9598;50.954;3.112;2023-02-01T18:05:50;9.50;99.90
18932;DHT22;9598;50.954;3.112;2023-02-01T18:10:54;9.50;99.90
18932;DHT22;9598;50.954;3.112;2023-02-01T18:16:00;9.50;99.90
18932;DHT22;9598;50.954;3.112;2023-02-01T18:21:04;9.50;99.90
18932;DHT22;9598;50.954;3.112;2023-02-01T18:26:09;9.50;99.90
18932;DHT22;9598;50.954;3.112;2023-02-01T18:31:22;9.50;99.90
18932;DHT22;9598;50.954;3.112;2023-02-01T18:36:25;9.50;99.90
18932;DHT22;9598;50.954;3.112;2023-02-01T18:41:28;9.50;99.90
18932;DHT22;9598;50.954;3.112;2023-02-01T18:46:31;9.50;99.90
18932;DHT22;9598;50.954;3.112;2023-02-01T18:51:33;9.50;99.90
18932;DHT22;9598;50.954;3.112;2023-02-01T18:56:36;9.50;99.90
18932;DHT22;9598;50.954;3.112;2023-02-01T19:01:39;9.50;99.90
18932;DHT22;9598;50.954;3.112;2023-02-01T19:06:41;9.50;99.90
18932;DHT22;9598;50.954;3.112;2023-02-01T19:11:44;9.50;99.90
18932;DHT22;9598;50.954;3.112;2023-02-01T19:16:49;9.50;99.90
18932;DHT22;9598;50.954;3.112;2023-02-01T19:21:51;9.50;99.90
18932;DHT22;9598;50.954;3.112;2023-02-01T19:26:54;9.50;99.90
18932;DHT22;9598;50.954;3.112;2023-02-01T19:31:57;9.50;99.90
18932;DHT22;9598;50.954;3.112;2023-02-01T19:36:59;9.50;99.90
18932;DHT22;9598;50.954;3.112;2023-02-01T19:42:05;9.50;99.90
18932;DHT22;9598;50.954;3.112;2023-02-01T19:47:09;9.50;99.90
18932;DHT22;9598;50.954;3.112;2023-02-01T19:52:11;9.50;99.90
18932;DHT22;9598;50.954;3.112;2023-02-01T19:57:13;9.50;99.90
18932;DHT22;9598;50.954;3.112;2023-02-01T20:02:16;9.40;99.90
18932;DHT22;9598;50.954;3.112;2023-02-01T20:07:19;9.50;99.90
18932;DHT22;9598;50.954;3.112;2023-02-01T20:12:21;9.40;99.90
18932;DHT22;9598;50.954;3.112;2023-02-01T20:17:24;9.40;99.90
18932;DHT22;9598;50.954;3.112;2023-02-01T20:22:26;9.40;99.90
18932;DHT22;9598;50.954;3.112;2023-02-01T20:27:28;9.40;99.90
18932;DHT22;9598;50.954;3.112;2023-02-01T20:32:32;9.40;99.90
18932;DHT22;9598;50.954;3.112;2023-02-01T20:37:34;9.30;99.90
18932;DHT22;9598;50.954;3.112;2023-02-01T20:42:37;9.30;99.90
18932;DHT22;9598;50.954;3.112;2023-02-01T20:47:41;9.30;99.90
18932;DHT22;9598;50.954;3.112;2023-02-01T20:52:43;9.20;99.90
18932;DHT22;9598;50.954;3.112;2023-02-01T20:57:45;9.20;99.90
18932;DHT22;9598;50.954;3.112;2023-02-01T21:02:49;9.20;99.90
18932;DHT22;9598;50.954;3.112;2023-02-01T21:07:51;9.20;99.90
18932;DHT22;9598;50.954;3.112;2023-02-01T21:12:53;9.20;99.90
18932;DHT22;9598;50.954;3.112;2023-02-01T21:17:57;9.30;99.90
18932;DHT22;9598;50.954;3.112;2023-02-01T21:23:02;9.20;99.90
18932;DHT22;9598;50.954;3.112;2023-02-01T21:28:04;9.20;99.90
18932;DHT22;9598;50.954;3.112;2023-02-01T21:33:08;9.30;99.90
18932;DHT22;9598;50.954;3.112;2023-02-01T21:38:10;9.20;99.90
18932;DHT22;9598;50.954;3.112;2023-02-01T21:43:12;9.20;99.90
18932;DHT22;9598;50.954;3.112;2023-02-01T21:48:16;9.20;99.90
18932;DHT22;9598;50.954;3.112;2023-02-01T21:53:18;9.20;99.90
18932;DHT22;9598;50.954;3.112;2023-02-01T21:58:20;9.20;99.90
18932;DHT22;9598;50.954;3.112;2023-02-01T22:03:23;9.20;99.90
18932;DHT22;9598;50.954;3.112;2023-02-01T22:08:25;9.20;99.90
18932;DHT22;9598;50.954;3.112;2023-02-01T22:13:28;9.20;99.90
18932;DHT22;9598;50.954;3.112;2023-02-01T22:18:31;9.20;99.90
18932;DHT22;9598;50.954;3.112;2023-02-01T22:23:33;9.20;99.90
18932;DHT22;9598;50.954;3.112;2023-02-01T22:28:35;9.20;99.90
18932;DHT22;9598;50.954;3.112;2023-02-01T22:33:39;9.20;99.90
18932;DHT22;9598;50.954;3.112;2023-02-01T22:38:42;9.20;99.90
18932;DHT22;9598;50.954;3.112;2023-02-01T22:43:45;9.20;99.90
18932;DHT22;9598;50.954;3.112;2023-02-01T22:48:49;9.20;99.90
18932;DHT22;9598;50.954;3.112;2023-02-01T22:53:51;9.20;99.90
18932;DHT22;9598;50.954;3.112;2023-02-01T22:58:58;9.20;99.90
18932;DHT22;9598;50.954;3.112;2023-02-01T23:04:04;9.20;99.90
18932;DHT22;9598;50.954;3.112;2023-02-01T23:09:12;9.20;99.90
18932;DHT22;9598;50.954;3.112;2023-02-01T23:14:15;9.20;99.90
18932;DHT22;9598;50.954;3.112;2023-02-01T23:19:19;9.20;99.90
18932;DHT22;9598;50.954;3.112;2023-02-01T23:24:24;9.20;99.90
18932;DHT22;9598;50.954;3.112;2023-02-01T23:29:26;9.20;99.90
18932;DHT22;9598;50.954;3.112;2023-02-01T23:34:30;9.20;99.90
18932;DHT22;9598;50.954;3.112;2023-02-01T23:39:32;9.20;99.90
18932;DHT22;9598;50.954;3.112;2023-02-01T23:44:35;9.20;99.90
18932;DHT22;9598;50.954;3.112;2023-02-01T23:49:38;9.20;99.90
18932;DHT22;9598;50.954;3.112;2023-02-01T23:54:40;9.20;99.90
18932;DHT22;9598;50.954;3.112;2023-02-01T23:59:43;9.20;99.90
